sensor_id;sensor_type;location;lat;lon;timestamp;temperature;humidity
16968;DHT22;64862;54.398;10.126;2023-02-23T00:08:04;8.50;99.90
16968;DHT22;64862;54.398;10.126;2023-02-23T00:18:06;8.30;99.90
16968;DHT22;64862;54.398;10.126;2023-02-23T00:28:11;8.40;99.90
16968;DHT22;64862;54.398;10.126;2023-02-23T00:38:13;8.40;99.90
16968;DHT22;64862;54.398;10.126;2023-02-23T00:48:16;8.40;99.90
16968;DHT22;64862;54.398;10.126;2023-02-23T00:58:18;8.50;99.90
16968;DHT22;64862;54.398;10.126;2023-02-23T01:08:21;8.60;99.90
16968;DHT22;64862;54.398;10.126;2023-02-23T01:18:24;8.60;99.90
16968;DHT22;64862;54.398;10.126;2023-02-23T01:28:27;8.60;99.90
16968;DHT22;64862;54.398;10.126;2023-02-23T01:38:29;8.60;99.90
16968;DHT22;64862;54.398;10.126;2023-02-23T01:48:36;8.60;99.90
16968;DHT22;64862;54.398;10.126;2023-02-23T01:58:42;8.50;99.90
16968;DHT22;64862;54.398;10.126;2023-02-23T02:08:50;8.50;99.90
16968;DHT22;64862;54.398;10.126;2023-02-23T02:19:14;8.50;99.90
16968;DHT22;64862;54.398;10.126;2023-02-23T02:30:03;8.40;99.90
16968;DHT22;64862;54.398;10.126;2023-02-23T02:40:20;8.40;99.90
16968;DHT22;64862;54.398;10.126;2023-02-23T02:50:36;8.40;99.90
16968;DHT22;64862;54.398;10.126;2023-02-23T03:00:46;8.60;99.90
16968;DHT22;64862;54.398;10.126;2023-02-23T03:11:07;8.60;99.90
16968;DHT22;64862;54.398;10.126;2023-02-23T03:21:38;8.70;99.90
16968;DHT22;64862;54.398;10.126;2023-02-23T03:32:03;8.80;99.90
16968;DHT22;64862;54.398;10.126;2023-02-23T03:42:30;8.70;99.90
16968;DHT22;64862;54.398;10.126;2023-02-23T03:52:55;8.80;99.90
16968;DHT22;64862;54.398;10.126;2023-02-23T04:03:19;8.80;99.90
16968;DHT22;64862;54.398;10.126;2023-02-23T04:13:39;8.80;99.90
16968;DHT22;64862;54.398;10.126;2023-02-23T04:23:43;8.90;99.90
16968;DHT22;64862;54.398;10.126;2023-02-23T04:33:46;8.80;99.90
16968;DHT22;64862;54.398;10.126;2023-02-23T04:43:50;9.00;99.90
16968;DHT22;64862;54.398;10.126;2023-02-23T04:53:52;9.00;99.90
16968;DHT22;64862;54.398;10.126;2023-02-23T05:03:55;8.90;99.90
16968;DHT22;64862;54.398;10.126;2023-02-23T05:13:57;9.00;99.90
16968;DHT22;64862;54.398;10.126;2023-02-23T05:24:01;9.00;99.90
16968;DHT22;64862;54.398;10.126;2023-02-23T05:34:03;9.00;99.90
16968;DHT22;64862;54.398;10.126;2023-02-23T05:44:06;9.00;99.90
16968;DHT22;64862;54.398;10.126;2023-02-23T05:54:08;9.00;99.90
16968;DHT22;64862;54.398;10.126;2023-02-23T06:04:12;8.80;99.90
16968;DHT22;64862;54.398;10.126;2023-02-23T06:14:14;8.80;99.90
16968;DHT22;64862;54.398;10.126;2023-02-23T06:24:17;8.80;99.90
16968;DHT22;64862;54.398;10.126;2023-02-23T06:34:19;8.80;99.90
16968;DHT22;64862;54.398;10.126;2023-02-23T06:44:23;8.80;99.90
16968;DHT22;64862;54.398;10.126;2023-02-23T06:54:25;8.80;99.90
16968;DHT22;64862;54.398;10.126;2023-02-23T07:04:28;8.70;99.90
16968;DHT22;64862;54.398;10.126;2023-02-23T07:14:31;8.70;99.90
16968;DHT22;64862;54.398;10.126;2023-02-23T07:24:34;8.70;99.90
16968;DHT22;64862;54.398;10.126;2023-02-23T07:34:37;8.90;99.90
16968;DHT22;64862;54.398;10.126;2023-02-23T07:44:40;8.70;99.90
16968;DHT22;64862;54.398;10.126;2023-02-23T07:54:42;8.70;99.90
16968;DHT22;64862;54.398;10.126;2023-02-23T08:04:46;8.70;99.90
16968;DHT22;64862;54.398;10.126;2023-02-23T08:14:48;8.80;99.90
16968;DHT22;64862;54.398;10.126;2023-02-23T08:24:51;8.70;99.90
16968;DHT22;64862;54.398;10.126;2023-02-23T08:34:53;8.80;99.90
16968;DHT22;64862;54.398;10.126;2023-02-23T08:44:58;8.70;99.90
16968;DHT22;64862;54.398;10.126;2023-02-23T08:55:01;8.70;99.90
16968;DHT22;64862;54.398;10.126;2023-02-23T09:05:05;8.90;99.90
16968;DHT22;64862;54.398;10.126;2023-02-23T09:15:08;8.90;99.90
16968;DHT22;64862;54.398;10.126;2023-02-23T09:25:12;8.80;99.90
16968;DHT22;64862;54.398;10.126;2023-02-23T09:35:14;8.80;99.90
16968;DHT22;64862;54.398;10.126;2023-02-23T09:45:28;8.80;99.90
16968;DHT22;64862;54.398;10.126;2023-02-23T09:55:32;8.90;99.90
16968;DHT22;64862;54.398;10.126;2023-02-23T10:05:40;9.10;99.90
16968;DHT22;64862;54.398;10.126;2023-02-23T10:15:47;9.10;99.90
16968;DHT22;64862;54.398;10.126;2023-02-23T10:25:53;9.30;99.90
16968;DHT22;64862;54.398;10.126;2023-02-23T10:36:08;9.40;99.90
16968;DHT22;64862;54.398;10.126;2023-02-23T10:46:17;9.40;99.90
16968;DHT22;64862;54.398;10.126;2023-02-23T10:56:22;9.50;99.90
16968;DHT22;64862;54.398;10.126;2023-02-23T11:06:29;9.80;99.90
16968;DHT22;64862;54.398;10.126;2023-02-23T11:16:37;9.90;99.90
16968;DHT22;64862;54.398;10.126;2023-02-23T11:26:42;9.50;99.90
16968;DHT22;64862;54.398;10.126;2023-02-23T11:36:57;9.50;99.90
16968;DHT22;64862;54.398;10.126;2023-02-23T11:47:02;9.60;99.90
16968;DHT22;64862;54.398;10.126;2023-02-23T11:57:07;9.70;99.90
16968;DHT22;64862;54.398;10.126;2023-02-23T12:07:30;9.60;99.90
16968;DHT22;64862;54.398;10.126;2023-02-23T12:17:39;9.70;99.90
16968;DHT22;64862;54.398;10.126;2023-02-23T12:27:47;9.80;99.90
16968;DHT22;64862;54.398;10.126;2023-02-23T12:37:52;10.00;99.90
16968;DHT22;64862;54.398;10.126;2023-02-23T12:48:05;9.90;99.90
16968;DHT22;64862;54.398;10.126;2023-02-23T12:58:17;10.10;99.90
16968;DHT22;64862;54.398;10.126;2023-02-23T13:08:32;10.40;99.90
16968;DHT22;64862;54.398;10.126;2023-02-23T13:18:44;10.40;99.90
16968;DHT22;64862;54.398;10.126;2023-02-23T13:28:53;10.10;99.90
16968;DHT22;64862;54.398;10.126;2023-02-23T13:39:26;10.10;99.90
16968;DHT22;64862;54.398;10.126;2023-02-23T13:49:36;10.00;99.90
16968;DHT22;64862;54.398;10.126;2023-02-23T13:59:42;9.60;99.90
16968;DHT22;64862;54.398;10.126;2023-02-23T14:09:53;9.50;99.90
16968;DHT22;64862;54.398;10.126;2023-02-23T14:20:11;9.70;99.90
16968;DHT22;64862;54.398;10.126;2023-02-23T14:30:25;9.70;99.90
16968;DHT22;64862;54.398;10.126;2023-02-23T14:40:30;9.70;99.90
16968;DHT22;64862;54.398;10.126;2023-02-23T14:50:35;9.70;99.90
16968;DHT22;64862;54.398;10.126;2023-02-23T15:00:41;9.70;99.90
16968;DHT22;64862;54.398;10.126;2023-02-23T15:10:46;9.70;99.90
16968;DHT22;64862;54.398;10.126;2023-02-23T15:20:48;9.60;99.90
16968;DHT22;64862;54.398;10.126;2023-02-23T15:30:53;9.10;99.90
16968;DHT22;64862;54.398;10.126;2023-02-23T15:40:57;8.90;99.90
16968;DHT22;64862;54.398;10.126;2023-02-23T15:51:01;8.70;99.90
16968;DHT22;64862;54.398;10.126;2023-02-23T16:01:10;8.60;99.90
16968;DHT22;64862;54.398;10.126;2023-02-23T16:11:15;8.30;99.90
16968;DHT22;64862;54.398;10.126;2023-02-23T16:21:20;8.30;99.90
16968;DHT22;64862;54.398;10.126;2023-02-23T16:31:39;8.20;99.90
16968;DHT22;64862;54.398;10.126;2023-02-23T16:41:41;7.70;99.90
16968;DHT22;64862;54.398;10.126;2023-02-23T16:51:46;7.30;99.90
16968;DHT22;64862;54.398;10.126;2023-02-23T17:01:48;7.10;99.90
16968;DHT22;64862;54.398;10.126;2023-02-23T17:11:52;6.80;99.90
16968;DHT22;64862;54.398;10.126;2023-02-23T17:21:55;6.60;99.90
16968;DHT22;64862;54.398;10.126;2023-02-23T17:31:59;6.50;99.90
16968;DHT22;64862;54.398;10.126;2023-02-23T17:42:01;6.20;99.90
16968;DHT22;64862;54.398;10.126;2023-02-23T17:52:05;6.00;99.90
16968;DHT22;64862;54.398;10.126;2023-02-23T18:02:09;5.90;99.90
16968;DHT22;64862;54.398;10.126;2023-02-23T18:12:15;5.80;99.90
16968;DHT22;64862;54.398;10.126;2023-02-23T18:22:18;5.70;99.90
16968;DHT22;64862;54.398;10.126;2023-02-23T18:32:21;5.80;99.90
16968;DHT22;64862;54.398;10.126;2023-02-23T18:42:23;5.50;99.90
16968;DHT22;64862;54.398;10.126;2023-02-23T18:52:26;5.40;99.90
16968;DHT22;64862;54.398;10.126;2023-02-23T19:02:28;5.70;99.90
16968;DHT22;64862;54.398;10.126;2023-02-23T19:12:32;5.90;99.90
16968;DHT22;64862;54.398;10.126;2023-02-23T19:22:34;5.90;99.90
16968;DHT22;64862;54.398;10.126;2023-02-23T19:32:37;5.80;99.90
16968;DHT22;64862;54.398;10.126;2023-02-23T19:42:42;6.00;99.90
16968;DHT22;64862;54.398;10.126;2023-02-23T19:52:47;5.90;99.90
16968;DHT22;64862;54.398;10.126;2023-02-23T20:02:50;5.90;99.90
16968;DHT22;64862;54.398;10.126;2023-02-23T20:12:55;5.80;99.90
16968;DHT22;64862;54.398;10.126;2023-02-23T20:22:57;5.70;99.90
16968;DHT22;64862;54.398;10.126;2023-02-23T20:33:02;5.80;99.90
16968;DHT22;64862;54.398;10.126;2023-02-23T20:43:05;5.50;99.90
16968;DHT22;64862;54.398;10.126;2023-02-23T20:53:09;5.60;99.90
16968;DHT22;64862;54.398;10.126;2023-02-23T21:03:11;5.60;99.90
16968;DHT22;64862;54.398;10.126;2023-02-23T21:13:15;5.60;99.90
16968;DHT22;64862;54.398;10.126;2023-02-23T21:23:17;5.70;99.90
16968;DHT22;64862;54.398;10.126;2023-02-23T21:33:22;5.70;99.90
16968;DHT22;64862;54.398;10.126;2023-02-23T21:43:24;5.80;99.90
16968;DHT22;64862;54.398;10.126;2023-02-23T21:53:28;5.70;99.90
16968;DHT22;64862;54.398;10.126;2023-02-23T22:03:31;5.80;99.90
16968;DHT22;64862;54.398;10.126;2023-02-23T22:13:34;5.90;99.90
16968;DHT22;64862;54.398;10.126;2023-02-23T22:23:37;5.90;99.90
16968;DHT22;64862;54.398;10.126;2023-02-23T22:33:42;5.70;99.90
16968;DHT22;64862;54.398;10.126;2023-02-23T22:43:45;5.80;99.90
16968;DHT22;64862;54.398;10.126;2023-02-23T22:53:48;5.90;99.90
16968;DHT22;64862;54.398;10.126;2023-02-23T23:03:50;5.90;99.90
16968;DHT22;64862;54.398;10.126;2023-02-23T23:13:56;5.90;99.90
16968;DHT22;64862;54.398;10.126;2023-02-23T23:24:02;5.90;99.90
16968;DHT22;64862;54.398;10.126;2023-02-23T23:34:08;5.90;99.90
16968;DHT22;64862;54.398;10.126;2023-02-23T23:44:10;5.90;99.90
16968;DHT22;64862;54.398;10.126;2023-02-23T23:54:16;5.90;99.90
